Time;durP1;ratioP1;P1;durP2;ratioP2;P2;SDS_P1;SDS_P2;PMS_P1;PMS_P2;Temp;Humidity;BMP_temperature;BMP_pressure;BME280_temperature;BME280_humidity;BME280_pressure;Samples;Min_cycle;Max_cycle;Signal;HPM_P1;HPM_P2
2024/04/03 05:01:33;;;;;;;4.65;1.77;;;8.30;87.60;;;;;;4327103;24;20205;-73
2024/04/03 05:03:36;;;;;;;4.95;1.77;;;8.30;88.10;;;;;;4022122;29;20410;-74
2024/04/03 05:05:37;;;;;;;7.32;1.90;;;8.30;88.60;;;;;;4021953;29;20065;-73
2024/04/03 05:07:39;;;;;;;5.50;1.90;;;8.30;88.20;;;;;;4021833;29;20105;-73
2024/04/03 05:09:40;;;;;;;7.15;2.00;;;8.40;87.40;;;;;;4021497;29;20393;-73
2024/04/03 05:11:41;;;;;;;4.53;1.73;;;8.40;87.70;;;;;;4023279;29;20101;-74
2024/04/03 05:13:43;;;;;;;6.00;1.90;;;8.50;87.60;;;;;;4024281;29;20054;-75
2024/04/03 05:15:45;;;;;;;3.97;1.60;;;8.50;87.30;;;;;;4024387;29;20085;-74
2024/04/03 05:17:48;;;;;;;4.43;1.75;;;8.50;87.10;;;;;;4024492;29;20381;-74
2024/04/03 05:19:49;;;;;;;4.70;1.70;;;8.60;85.40;;;;;;4024381;29;20053;-74
2024/04/03 05:21:51;;;;;;;6.30;1.75;;;8.60;85.70;;;;;;4024449;29;20491;-75
2024/04/03 05:23:52;;;;;;;3.53;1.70;;;8.70;86.20;;;;;;4024412;29;20134;-75
2024/04/03 05:25:58;;;;;;;4.15;1.85;;;8.60;85.70;;;;;;4024469;29;20388;-74
2024/04/03 05:27:59;;;;;;;5.22;1.77;;;8.60;87.10;;;;;;4024286;29;20065;-74
2024/04/03 05:30:01;;;;;;;4.43;1.50;;;8.50;87.50;;;;;;4024297;29;20049;-76
2024/04/03 05:32:04;;;;;;;4.57;1.48;;;8.50;87.60;;;;;;4024219;29;20110;-74
2024/04/03 05:34:07;;;;;;;3.80;1.67;;;8.50;87.50;;;;;;4024220;29;20045;-75
2024/04/03 05:36:10;;;;;;;3.78;1.63;;;8.30;88.30;;;;;;4024076;29;20054;-74
2024/04/03 05:38:12;;;;;;;8.13;1.80;;;8.30;88.20;;;;;;4024311;29;20480;-75
2024/04/03 05:40:13;;;;;;;6.43;1.55;;;8.30;87.60;;;;;;4024289;29;20456;-74
2024/04/03 05:42:15;;;;;;;5.80;1.58;;;8.30;87.60;;;;;;4024389;29;20061;-75
2024/04/03 05:44:16;;;;;;;5.45;1.70;;;8.10;89.10;;;;;;4024346;29;20064;-75
2024/04/03 05:46:18;;;;;;;5.82;1.70;;;8.00;89.40;;;;;;4024169;29;20136;-74
2024/04/03 05:48:20;;;;;;;4.88;1.63;;;8.10;88.90;;;;;;4024192;29;20054;-75
2024/04/03 05:50:24;;;;;;;6.05;1.90;;;8.20;89.30;;;;;;4024130;29;20419;-75
2024/04/03 05:52:25;;;;;;;3.83;1.58;;;8.30;88.60;;;;;;4024219;29;20117;-75
2024/04/03 05:54:27;;;;;;;6.03;1.88;;;8.40;88.00;;;;;;4024141;29;20046;-74
2024/04/03 05:56:28;;;;;;;9.65;3.75;;;8.50;87.80;;;;;;4024121;29;20105;-76
2024/04/03 05:58:31;;;;;;;6.40;2.45;;;8.60;87.00;;;;;;4023848;29;20456;-75
2024/04/03 06:00:32;;;;;;;6.85;2.20;;;8.60;85.80;;;;;;4023697;29;20046;-75
2024/04/03 06:02:34;;;;;;;5.05;1.90;;;8.60;86.10;;;;;;4024187;29;20054;-75
2024/04/03 06:04:35;;;;;;;5.60;1.67;;;8.70;86.00;;;;;;4023637;29;20053;-75
2024/04/03 06:06:39;;;;;;;4.63;1.60;;;8.70;85.70;;;;;;4023387;29;20053;-75
2024/04/03 06:08:40;;;;;;;7.47;1.83;;;8.70;84.50;;;;;;4023732;29;20060;-75
2024/04/03 06:10:42;;;;;;;4.57;1.83;;;8.70;83.30;;;;;;4023802;29;20049;-75
2024/04/03 06:12:43;;;;;;;5.63;1.60;;;8.80;82.90;;;;;;4023405;29;20046;-74
2024/04/03 06:14:44;;;;;;;5.93;1.60;;;8.70;83.30;;;;;;4023534;29;20113;-75
2024/04/03 06:16:45;;;;;;;6.18;1.60;;;8.70;82.60;;;;;;4023743;29;20053;-75
2024/04/03 06:18:48;;;;;;;5.15;1.48;;;8.70;82.30;;;;;;4023769;29;20049;-75
2024/04/03 06:20:50;;;;;;;4.35;1.30;;;8.70;82.10;;;;;;4023426;29;20109;-75
2024/04/03 06:22:53;;;;;;;8.93;1.80;;;8.70;82.00;;;;;;4023160;29;20449;-75
2024/04/03 06:24:54;;;;;;;4.13;1.40;;;8.80;83.10;;;;;;4023530;29;20053;-75
2024/04/03 06:26:57;;;;;;;4.30;1.48;;;8.70;83.50;;;;;;4023545;29;20118;-75
2024/04/03 06:28:58;;;;;;;4.32;1.50;;;8.60;84.40;;;;;;4023351;29;20045;-75
2024/04/03 06:30:59;;;;;;;5.32;1.65;;;8.50;84.40;;;;;;4023320;29;20109;-74
2024/04/03 06:33:00;;;;;;;4.90;1.48;;;8.50;84.80;;;;;;4023358;29;20464;-74
2024/04/03 06:35:02;;;;;;;4.35;1.40;;;8.40;85.20;;;;;;4023273;29;20050;-74
2024/04/03 06:37:04;;;;;;;3.88;1.30;;;8.50;84.60;;;;;;4023173;29;20054;-74
2024/04/03 06:39:07;;;;;;;5.30;1.35;;;8.60;83.20;;;;;;4023344;29;20514;-74
2024/04/03 06:41:08;;;;;;;6.03;1.70;;;8.70;82.20;;;;;;4022869;29;20530;-74
2024/04/03 06:43:10;;;;;;;4.22;1.30;;;8.70;83.60;;;;;;4023143;29;20053;-73
2024/04/03 06:45:11;;;;;;;4.78;1.20;;;8.70;82.20;;;;;;4023155;29;20098;-73
2024/04/03 06:47:14;;;;;;;3.85;1.20;;;8.90;81.20;;;;;;4023116;29;20132;-75
2024/04/03 06:49:15;;;;;;;3.55;1.20;;;9.00;79.80;;;;;;4023033;29;20053;-75
2024/04/03 06:51:17;;;;;;;3.83;1.35;;;9.00;81.50;;;;;;4023180;29;20109;-75
2024/04/03 06:53:18;;;;;;;5.82;1.50;;;9.00;80.20;;;;;;4023118;29;20200;-74
2024/04/03 06:55:21;;;;;;;4.28;1.13;;;9.10;79.70;;;;;;4023164;29;20102;-75
2024/04/03 06:57:23;;;;;;;4.50;1.48;;;9.20;79.60;;;;;;4022936;29;20310;-74
2024/04/03 06:59:25;;;;;;;3.72;1.50;;;9.20;82.50;;;;;;4023006;29;20059;-75
2024/04/03 07:01:26;;;;;;;5.60;1.40;;;9.30;81.00;;;;;;4022866;29;20091;-75
2024/04/03 07:03:29;;;;;;;5.78;1.48;;;9.20;81.40;;;;;;4023033;29;20410;-75
2024/04/03 07:05:30;;;;;;;4.60;1.40;;;9.20;82.70;;;;;;4022927;29;20415;-75
2024/04/03 07:07:32;;;;;;;5.22;1.25;;;9.20;81.50;;;;;;4023098;29;20049;-75
2024/04/03 07:09:32;;;;;;;4.78;1.50;;;9.30;81.60;;;;;;4023113;29;20109;-75
2024/04/03 07:11:36;;;;;;;4.90;1.33;;;9.30;81.00;;;;;;4022658;29;20045;-74
2024/04/03 07:13:37;;;;;;;3.72;1.27;;;9.30;79.70;;;;;;4022804;29;20109;-74
2024/04/03 07:15:38;;;;;;;3.97;1.42;;;9.30;80.40;;;;;;4022687;29;20452;-74
2024/04/03 07:17:40;;;;;;;4.32;1.30;;;9.30;80.50;;;;;;4022733;29;20045;-74
2024/04/03 07:19:41;;;;;;;5.15;1.40;;;9.30;81.10;;;;;;4022817;29;20055;-74
2024/04/03 07:21:44;;;;;;;3.67;1.40;;;9.30;82.10;;;;;;4022599;29;20058;-74
2024/04/03 07:23:45;;;;;;;4.60;1.20;;;9.30;81.20;;;;;;4022639;29;20049;-74
2024/04/03 07:25:47;;;;;;;4.65;1.45;;;9.40;83.10;;;;;;4022879;29;20468;-74
2024/04/03 07:27:51;;;;;;;3.15;1.25;;;9.40;82.90;;;;;;4022702;29;20053;-74
2024/04/03 07:29:53;;;;;;;4.28;1.42;;;9.40;82.60;;;;;;4022770;29;20128;-74
2024/04/03 07:31:54;;;;;;;3.75;1.45;;;9.40;83.00;;;;;;4022773;29;20480;-75
2024/04/03 07:33:55;;;;;;;5.20;1.80;;;9.40;82.80;;;;;;4022056;29;20141;-74
2024/04/03 07:35:56;;;;;;;4.38;1.50;;;9.40;83.20;;;;;;4022694;29;20429;-74
2024/04/03 07:37:58;;;;;;;5.07;1.40;;;9.50;84.70;;;;;;4022673;29;20078;-74
2024/04/03 07:39:59;;;;;;;3.47;1.38;;;9.40;86.10;;;;;;4022525;29;20053;-74
2024/04/03 07:42:01;;;;;;;5.55;1.58;;;9.40;86.30;;;;;;4022643;29;20105;-74
2024/04/03 07:44:04;;;;;;;4.25;1.83;;;9.50;85.00;;;;;;4022560;29;20045;-74
2024/04/03 07:46:06;;;;;;;4.22;1.30;;;9.50;83.80;;;;;;4022382;29;20660;-75
2024/04/03 07:48:07;;;;;;;3.80;1.60;;;9.70;82.70;;;;;;4022456;29;20053;-75
2024/04/03 07:50:09;;;;;;;4.15;1.40;;;9.70;83.20;;;;;;4022462;29;20393;-75
2024/04/03 07:52:10;;;;;;;4.05;1.50;;;9.80;83.20;;;;;;4022410;29;20053;-74
2024/04/03 07:54:12;;;;;;;3.63;1.20;;;9.90;83.70;;;;;;4022345;29;20049;-75
2024/04/03 07:56:13;;;;;;;5.45;1.70;;;10.00;83.50;;;;;;4022391;29;20464;-74
2024/04/03 07:58:15;;;;;;;3.95;1.50;;;10.00;83.50;;;;;;4022325;29;20057;-74
2024/04/03 08:00:18;;;;;;;5.05;1.52;;;10.00;83.10;;;;;;4022253;29;20110;-76
2024/04/03 08:02:20;;;;;;;5.43;1.60;;;10.10;83.20;;;;;;4022106;29;20145;-75
2024/04/03 08:04:23;;;;;;;3.40;1.25;;;10.10;82.40;;;;;;4022147;29;20061;-75
2024/04/03 08:06:25;;;;;;;4.25;1.30;;;10.20;82.70;;;;;;4022291;29;20073;-75
2024/04/03 08:08:28;;;;;;;4.13;1.42;;;10.20;82.10;;;;;;4022389;29;20061;-75
2024/04/03 08:10:30;;;;;;;3.22;1.10;;;10.20;81.80;;;;;;4022306;29;20144;-75
2024/04/03 08:12:31;;;;;;;5.85;1.60;;;10.40;82.00;;;;;;4022186;29;20502;-74
2024/04/03 08:14:33;;;;;;;3.10;1.23;;;10.50;81.60;;;;;;4022074;29;20049;-74
2024/04/03 08:16:35;;;;;;;5.75;1.52;;;10.50;81.90;;;;;;4022312;29;20053;-75
2024/04/03 08:18:36;;;;;;;5.63;1.50;;;10.60;81.60;;;;;;4022178;29;20086;-75
2024/04/03 08:20:38;;;;;;;6.50;3.42;;;10.80;81.60;;;;;;4022216;29;20049;-75
2024/04/03 08:22:39;;;;;;;5.30;1.70;;;10.90;82.20;;;;;;4022123;29;20057;-75
2024/04/03 08:24:41;;;;;;;3.60;1.17;;;10.90;79.10;;;;;;4021973;29;20109;-74
2024/04/03 08:26:42;;;;;;;4.45;1.33;;;11.10;78.70;;;;;;4022221;29;20548;-75
2024/04/03 08:28:43;;;;;;;3.50;1.20;;;11.20;78.00;;;;;;4022098;29;20049;-75
2024/04/03 08:30:44;;;;;;;3.75;1.17;;;11.30;77.10;;;;;;4022236;29;20053;-75
2024/04/03 08:32:47;;;;;;;4.22;1.30;;;11.40;77.70;;;;;;4022140;29;20057;-75
2024/04/03 08:34:51;;;;;;;3.53;1.30;;;11.50;76.80;;;;;;4022047;29;20057;-75
2024/04/03 08:36:53;;;;;;;3.80;1.00;;;11.60;75.40;;;;;;4022319;29;20456;-74
2024/04/03 08:38:54;;;;;;;2.30;0.77;;;11.70;72.60;;;;;;4021924;29;20049;-75
2024/04/03 08:40:57;;;;;;;4.63;1.02;;;11.70;71.70;;;;;;4022180;29;20106;-75
2024/04/03 08:42:58;;;;;;;5.20;1.30;;;11.80;71.90;;;;;;4021869;29;20053;-75
2024/04/03 08:45:02;;;;;;;4.32;1.17;;;11.90;72.70;;;;;;4022458;29;20495;-75
2024/04/03 08:47:03;;;;;;;3.05;1.02;;;12.00;71.80;;;;;;4024974;29;20088;-76
2024/04/03 08:49:09;;;;;;;3.90;0.90;;;12.10;71.30;;;;;;4024959;29;20053;-75
2024/04/03 08:51:10;;;;;;;2.22;0.90;;;12.10;70.90;;;;;;4024228;29;20053;-76
2024/04/03 08:53:17;;;;;;;4.50;1.00;;;12.20;70.70;;;;;;4022277;29;20057;-75
2024/04/03 08:55:19;;;;;;;2.75;0.90;;;12.30;69.20;;;;;;4020654;29;20064;-77
2024/04/03 08:57:22;;;;;;;2.95;0.82;;;12.30;68.70;;;;;;4022735;29;20053;-75
2024/04/03 08:59:24;;;;;;;3.15;0.75;;;12.30;67.50;;;;;;4022591;29;20144;-76
2024/04/03 09:01:25;;;;;;;2.50;0.77;;;12.50;66.70;;;;;;4022491;29;20054;-75
2024/04/03 09:03:27;;;;;;;3.10;1.00;;;12.50;66.40;;;;;;4022493;29;20200;-76
2024/04/03 09:05:29;;;;;;;2.90;0.73;;;12.60;66.30;;;;;;4022760;29;20061;-75
2024/04/03 09:07:30;;;;;;;2.58;0.68;;;12.70;66.30;;;;;;4022857;29;20053;-75
2024/04/03 09:09:33;;;;;;;2.10;0.70;;;12.80;66.50;;;;;;4022716;29;20053;-76
2024/04/03 09:11:33;;;;;;;3.30;0.77;;;12.90;65.70;;;;;;4022468;29;20054;-76
2024/04/03 09:13:36;;;;;;;3.80;0.80;;;13.00;65.70;;;;;;4022612;29;20057;-75
2024/04/03 09:15:37;;;;;;;2.70;0.52;;;13.00;65.70;;;;;;4022260;29;20062;-76
2024/04/03 09:17:39;;;;;;;3.25;0.60;;;13.00;65.10;;;;;;4022485;29;20464;-75
2024/04/03 09:19:49;;;;;;;4.32;0.80;;;13.10;64.10;;;;;;4022369;29;20049;-75
2024/04/03 09:21:52;;;;;;;2.15;0.70;;;13.10;64.30;;;;;;4022323;29;20091;-76
2024/04/03 09:23:53;;;;;;;3.55;1.10;;;13.10;64.80;;;;;;4022355;29;20053;-75
2024/04/03 09:25:55;;;;;;;2.40;0.70;;;13.10;65.00;;;;;;4022185;29;20069;-76
2024/04/03 09:28:01;;;;;;;3.75;0.90;;;13.20;63.50;;;;;;4022082;29;20118;-76
2024/04/03 09:30:04;;;;;;;4.13;1.50;;;13.20;64.40;;;;;;4022400;29;20082;-75
2024/04/03 09:32:07;;;;;;;3.22;0.80;;;13.20;64.80;;;;;;4022261;29;20050;-75
2024/04/03 09:34:10;;;;;;;2.55;0.60;;;13.20;62.20;;;;;;4022307;29;20322;-75
2024/04/03 09:36:12;;;;;;;3.85;0.95;;;13.30;61.90;;;;;;4022013;29;20106;-75
2024/04/03 09:38:15;;;;;;;2.47;0.80;;;13.30;62.40;;;;;;4021991;29;20085;-75
2024/04/03 09:40:17;;;;;;;3.95;1.90;;;13.40;62.30;;;;;;4021709;29;20057;-74
2024/04/03 09:42:22;;;;;;;3.05;0.90;;;13.40;62.90;;;;;;4021803;29;20057;-75
2024/04/03 09:44:25;;;;;;;2.65;0.60;;;13.50;61.10;;;;;;4022196;29;20061;-75
2024/04/03 09:46:32;;;;;;;1.75;0.57;;;13.50;61.20;;;;;;4022212;29;20307;-75
2024/04/03 09:48:36;;;;;;;2.00;0.65;;;13.60;60.60;;;;;;4022008;29;20053;-75
2024/04/03 09:50:40;;;;;;;2.25;0.63;;;13.70;60.10;;;;;;4021921;29;20049;-75
2024/04/03 09:52:42;;;;;;;1.85;0.70;;;13.80;60.70;;;;;;4021643;29;20053;-75
2024/04/03 09:54:47;;;;;;;2.40;0.60;;;13.90;60.90;;;;;;4019893;29;20516;-75
2024/04/03 09:56:49;;;;;;;2.50;0.65;;;14.10;63.90;;;;;;4021191;29;20053;-74
2024/04/03 09:58:51;;;;;;;5.30;0.98;;;14.10;60.40;;;;;;4021846;29;20050;-75
2024/04/03 10:00:54;;;;;;;2.95;0.90;;;14.20;60.90;;;;;;4021603;29;20117;-76
2024/04/03 10:02:56;;;;;;;2.70;0.90;;;14.50;62.70;;;;;;4021731;29;20057;-77
2024/04/03 10:04:58;;;;;;;2.15;0.70;;;14.60;60.70;;;;;;4021451;29;20512;-75
2024/04/03 10:07:00;;;;;;;4.38;1.17;;;14.70;59.90;;;;;;4021649;29;20499;-75
2024/04/03 10:09:15;;;;;;;3.45;0.90;;;14.80;64.90;;;;;;4021669;29;20114;-77
2024/04/03 10:11:18;;;;;;;2.45;0.60;;;14.90;59.20;;;;;;4021585;29;20056;-76
2024/04/03 10:13:22;;;;;;;1.75;0.65;;;14.90;57.90;;;;;;4021648;29;20053;-78
2024/04/03 10:15:24;;;;;;;1.65;0.55;;;14.80;57.30;;;;;;4021440;29;20098;-75
2024/04/03 10:17:36;;;;;;;2.83;0.68;;;14.80;57.20;;;;;;4021763;29;20484;-76
2024/04/03 10:19:42;;;;;;;1.88;0.60;;;14.70;56.70;;;;;;4021319;29;20050;-75
2024/04/03 10:21:43;;;;;;;3.38;0.80;;;14.60;56.30;;;;;;4021515;29;20136;-77
2024/04/03 10:23:47;;;;;;;2.83;0.80;;;14.50;57.00;;;;;;4021672;29;20508;-75
2024/04/03 10:25:49;;;;;;;2.35;0.70;;;14.50;58.30;;;;;;4021385;29;20136;-74
2024/04/03 10:27:53;;;;;;;2.05;0.65;;;14.50;57.80;;;;;;4021251;29;20054;-73
2024/04/03 10:30:01;;;;;;;3.97;0.55;;;14.50;57.40;;;;;;4021259;29;20058;-75
2024/04/03 10:32:03;;;;;;;2.55;0.77;;;14.40;57.00;;;;;;4021489;29;20055;-74
2024/04/03 10:34:04;;;;;;;2.05;0.60;;;14.30;57.70;;;;;;4021451;29;20133;-74
2024/04/03 10:36:07;;;;;;;2.22;0.60;;;14.30;57.90;;;;;;4021336;29;20061;-74
2024/04/03 10:38:08;;;;;;;1.02;0.40;;;14.30;58.00;;;;;;4021379;29;20049;-74
2024/04/03 10:40:10;;;;;;;2.10;0.70;;;14.30;57.80;;;;;;4020942;29;20076;-74
2024/04/03 10:42:11;;;;;;;2.33;0.70;;;14.20;58.10;;;;;;4021399;29;20133;-75
2024/04/03 10:44:15;;;;;;;2.47;0.60;;;14.20;59.20;;;;;;4021465;29;20053;-75
2024/04/03 10:46:22;;;;;;;4.07;0.68;;;14.20;59.50;;;;;;4021227;29;20065;-75
2024/04/03 10:48:25;;;;;;;2.50;0.50;;;14.10;59.30;;;;;;4021361;29;20503;-75
2024/04/03 10:50:26;;;;;;;2.53;0.45;;;14.10;59.80;;;;;;4021218;29;20448;-75
2024/04/03 10:52:29;;;;;;;2.10;0.45;;;14.00;60.80;;;;;;4021006;29;20486;-75
2024/04/03 10:54:31;;;;;;;2.53;0.50;;;14.00;61.70;;;;;;4019219;29;20534;-75
2024/04/03 10:56:32;;;;;;;3.30;0.50;;;14.00;62.20;;;;;;4020970;29;20057;-75
2024/04/03 10:58:33;;;;;;;2.78;0.55;;;14.00;62.90;;;;;;4021130;29;20053;-75
2024/04/03 11:00:38;;;;;;;1.77;0.52;;;14.10;63.40;;;;;;4020775;29;20425;-75
2024/04/03 11:02:44;;;;;;;1.42;0.40;;;14.10;64.00;;;;;;4021039;29;20144;-75
2024/04/03 11:04:45;;;;;;;1.42;0.47;;;13.90;64.50;;;;;;4020603;29;20053;-75
2024/04/03 11:06:47;;;;;;;1.48;0.47;;;13.80;65.40;;;;;;4020677;29;20049;-75
2024/04/03 11:08:48;;;;;;;2.60;0.50;;;13.60;66.60;;;;;;4020662;29;20053;-75
2024/04/03 11:10:50;;;;;;;1.67;0.45;;;13.50;68.10;;;;;;4021272;29;20053;-75
2024/04/03 11:13:02;;;;;;;1.50;0.50;;;13.50;68.70;;;;;;4020351;29;20057;-73
2024/04/03 11:15:05;;;;;;;2.00;0.60;;;13.40;70.90;;;;;;4018216;29;20054;-73
2024/04/03 11:17:08;;;;;;;2.33;0.80;;;13.30;72.30;;;;;;4020657;29;20058;-73
2024/04/03 11:19:09;;;;;;;1.52;0.50;;;13.50;73.10;;;;;;4020507;29;20105;-73
2024/04/03 11:21:10;;;;;;;2.05;0.70;;;13.60;73.20;;;;;;4020794;29;20465;-74
2024/04/03 11:23:12;;;;;;;1.98;0.70;;;13.50;73.50;;;;;;4020761;29;20053;-73
2024/04/03 11:25:13;;;;;;;2.97;0.68;;;13.60;75.20;;;;;;4020559;29;20129;-73
2024/04/03 11:27:15;;;;;;;1.85;0.60;;;13.50;75.90;;;;;;4020539;29;20053;-73
2024/04/03 11:29:30;;;;;;;2.58;0.70;;;13.60;77.80;;;;;;4020863;29;20084;-73
2024/04/03 11:31:32;;;;;;;1.77;0.60;;;13.70;77.90;;;;;;4020455;29;20050;-73
2024/04/03 11:33:35;;;;;;;1.75;0.50;;;13.80;77.20;;;;;;4020536;29;20053;-73
2024/04/03 11:35:37;;;;;;;2.42;0.60;;;13.80;75.50;;;;;;4020588;29;20065;-73
2024/04/03 11:37:39;;;;;;;1.80;0.50;;;13.90;75.50;;;;;;4020786;29;20232;-73
2024/04/03 11:39:41;;;;;;;1.50;0.40;;;13.90;74.00;;;;;;4020451;29;20148;-73
2024/04/03 11:41:42;;;;;;;0.82;0.25;;;13.90;69.30;;;;;;4020638;29;20510;-73
2024/04/03 11:43:43;;;;;;;0.63;0.30;;;13.80;67.50;;;;;;4020688;29;20060;-74
2024/04/03 11:45:45;;;;;;;1.38;0.30;;;13.90;67.00;;;;;;4020504;29;20064;-74
2024/04/03 11:47:46;;;;;;;1.13;0.30;;;13.80;67.20;;;;;;4020555;29;20121;-73
2024/04/03 11:49:49;;;;;;;0.60;0.30;;;13.90;66.80;;;;;;4020371;29;20061;-74
2024/04/03 11:51:50;;;;;;;1.33;0.40;;;13.90;66.30;;;;;;4020202;29;20554;-73
2024/04/03 11:53:51;;;;;;;0.88;0.30;;;13.80;65.80;;;;;;4018333;29;20061;-73
2024/04/03 11:55:53;;;;;;;0.60;0.30;;;13.70;66.10;;;;;;4020278;29;20465;-73
2024/04/03 11:57:54;;;;;;;0.65;0.30;;;13.70;65.80;;;;;;4020275;29;20058;-73
2024/04/03 11:59:57;;;;;;;0.40;0.10;;;13.70;66.50;;;;;;4020281;29;20071;-73
2024/04/03 12:01:57;;;;;;;1.70;0.40;;;13.70;66.80;;;;;;4020237;29;20069;-73
2024/04/03 12:03:59;;;;;;;1.55;0.38;;;13.70;66.90;;;;;;4020067;29;20061;-73
2024/04/03 12:06:02;;;;;;;1.35;0.20;;;13.70;66.40;;;;;;4020318;29;20142;-73
2024/04/03 12:08:04;;;;;;;1.15;0.47;;;13.60;67.00;;;;;;4020209;29;20065;-73
2024/04/03 12:10:08;;;;;;;1.75;0.45;;;13.50;67.90;;;;;;4020227;29;20058;-74
2024/04/03 12:12:10;;;;;;;0.68;0.32;;;13.40;68.30;;;;;;4020247;29;20053;-74
2024/04/03 12:14:11;;;;;;;0.70;0.30;;;13.30;69.40;;;;;;4020210;29;20564;-74
2024/04/03 12:16:19;;;;;;;1.85;0.57;;;13.20;71.00;;;;;;4019991;29;20101;-74
2024/04/03 12:18:25;;;;;;;0.88;0.30;;;13.20;71.30;;;;;;4020234;29;20077;-74
2024/04/03 12:20:30;;;;;;;1.10;0.40;;;13.20;70.70;;;;;;4021925;29;20110;-74
2024/04/03 12:22:33;;;;;;;0.80;0.20;;;13.20;71.10;;;;;;4023656;29;20071;-74
2024/04/03 12:24:35;;;;;;;1.48;0.28;;;13.20;71.40;;;;;;4023247;29;20053;-74
2024/04/03 12:26:36;;;;;;;1.35;0.30;;;13.30;72.10;;;;;;4023150;29;20061;-74
2024/04/03 12:28:39;;;;;;;1.13;0.30;;;13.30;71.10;;;;;;4023317;29;20061;-75
2024/04/03 12:30:40;;;;;;;0.98;0.40;;;13.30;71.20;;;;;;4023309;29;20299;-73
2024/04/03 12:32:43;;;;;;;1.52;0.40;;;13.20;72.10;;;;;;4023326;29;20050;-73
2024/04/03 12:34:44;;;;;;;2.08;0.57;;;13.10;71.20;;;;;;4022975;29;20070;-74
2024/04/03 12:36:46;;;;;;;1.30;0.30;;;13.10;71.70;;;;;;4023198;29;20514;-74
2024/04/03 12:38:48;;;;;;;1.65;0.40;;;13.20;71.80;;;;;;4023299;29;20053;-74
2024/04/03 12:40:50;;;;;;;1.30;0.30;;;13.20;71.50;;;;;;4022760;29;20088;-74
2024/04/03 12:42:51;;;;;;;1.85;0.52;;;13.20;71.90;;;;;;4023150;29;20061;-74
2024/04/03 12:44:54;;;;;;;2.22;0.50;;;13.20;72.10;;;;;;4022974;29;20632;-74
2024/04/03 12:46:55;;;;;;;0.65;0.32;;;13.30;72.00;;;;;;4022987;29;20057;-73
2024/04/03 12:48:57;;;;;;;1.45;0.43;;;13.10;72.20;;;;;;4022962;29;20060;-74
2024/04/03 12:50:58;;;;;;;0.85;0.30;;;13.00;73.00;;;;;;4022986;29;20084;-73
2024/04/03 12:53:00;;;;;;;0.25;0.20;;;13.10;71.20;;;;;;4022784;29;20213;-74
2024/04/03 12:55:04;;;;;;;0.70;0.20;;;13.10;71.40;;;;;;4020740;29;20060;-74
2024/04/03 12:57:06;;;;;;;0.75;0.28;;;13.10;71.40;;;;;;4022829;29;20061;-74
2024/04/03 12:59:06;;;;;;;0.95;0.30;;;13.00;71.70;;;;;;4022542;29;20054;-74
2024/04/03 13:01:08;;;;;;;0.57;0.20;;;13.00;72.10;;;;;;4022445;29;20411;-74
2024/04/03 13:03:10;;;;;;;0.82;0.20;;;13.00;72.00;;;;;;4022780;29;20054;-74
2024/04/03 13:05:12;;;;;;;0.90;0.25;;;13.00;72.50;;;;;;4022300;29;20558;-74
2024/04/03 13:07:13;;;;;;;1.00;0.30;;;13.10;72.70;;;;;;4022684;29;20406;-74
2024/04/03 13:09:15;;;;;;;0.40;0.20;;;13.10;72.90;;;;;;4022756;29;20384;-73
2024/04/03 13:11:17;;;;;;;1.02;0.30;;;13.10;73.00;;;;;;4022671;29;20465;-74
2024/04/03 13:13:19;;;;;;;0.88;0.30;;;13.20;74.00;;;;;;4022728;29;20153;-73
2024/04/03 13:15:20;;;;;;;0.65;0.20;;;13.20;73.30;;;;;;4022412;29;20481;-74
2024/04/03 13:17:22;;;;;;;0.55;0.20;;;13.30;73.80;;;;;;4022103;29;20045;-75
2024/04/03 13:19:23;;;;;;;0.45;0.20;;;13.30;74.40;;;;;;4021991;29;20054;-76
2024/04/03 13:21:25;;;;;;;0.80;0.30;;;13.20;73.60;;;;;;4022630;29;20144;-75
2024/04/03 13:23:26;;;;;;;0.32;0.10;;;13.10;73.60;;;;;;4022220;29;20117;-75
2024/04/03 13:25:30;;;;;;;0.38;0.17;;;13.20;74.00;;;;;;4022417;29;20053;-75
2024/04/03 13:27:32;;;;;;;0.63;0.20;;;13.20;74.70;;;;;;4022056;29;20061;-74
2024/04/03 13:29:34;;;;;;;0.77;0.30;;;13.10;74.40;;;;;;4022405;29;20492;-75
2024/04/03 13:31:35;;;;;;;3.97;1.52;;;13.10;74.70;;;;;;4021506;29;20556;-75
2024/04/03 13:33:37;;;;;;;1.23;0.45;;;13.20;74.80;;;;;;4022451;29;20049;-75
2024/04/03 13:35:37;;;;;;;1.23;0.32;;;13.20;75.00;;;;;;4022319;29;20110;-74
2024/04/03 13:37:39;;;;;;;0.77;0.30;;;13.20;74.60;;;;;;4022411;29;20065;-74
2024/04/03 13:39:40;;;;;;;0.85;0.30;;;13.20;73.60;;;;;;4021936;29;20050;-75
2024/04/03 13:41:42;;;;;;;1.45;0.57;;;13.20;74.20;;;;;;4021982;29;20544;-75
2024/04/03 13:43:45;;;;;;;0.50;0.20;;;13.20;74.60;;;;;;4022017;29;20121;-75
2024/04/03 13:45:48;;;;;;;0.38;0.20;;;13.20;74.70;;;;;;4022110;29;20062;-75
2024/04/03 13:47:48;;;;;;;0.80;0.25;;;13.30;75.20;;;;;;4022018;29;20619;-75
2024/04/03 13:49:49;;;;;;;0.70;0.28;;;13.20;75.90;;;;;;4022012;29;20053;-75
2024/04/03 13:51:51;;;;;;;0.73;0.30;;;13.20;76.00;;;;;;4021475;29;20053;-75
2024/04/03 13:53:53;;;;;;;0.90;0.20;;;13.20;76.20;;;;;;4020124;29;20564;-74
2024/04/03 13:55:59;;;;;;;0.75;0.30;;;13.20;76.60;;;;;;4021400;29;20059;-74
2024/04/03 13:58:00;;;;;;;0.50;0.20;;;13.10;77.80;;;;;;4022012;29;20057;-74
2024/04/03 14:00:09;;;;;;;1.15;0.30;;;13.10;78.10;;;;;;4022093;29;20050;-74
2024/04/03 14:02:10;;;;;;;0.98;0.30;;;13.00;78.60;;;;;;4021633;29;20062;-74
2024/04/03 14:04:12;;;;;;;1.05;0.30;;;13.00;79.80;;;;;;4021206;29;20054;-74
2024/04/03 14:06:13;;;;;;;1.25;0.40;;;13.00;81.00;;;;;;4021010;29;20094;-74
2024/04/03 14:08:15;;;;;;;0.95;0.30;;;13.00;81.80;;;;;;4021991;29;20057;-75
2024/04/03 14:10:16;;;;;;;1.23;0.32;;;12.90;82.90;;;;;;4021915;29;20076;-76
2024/04/03 14:12:18;;;;;;;1.38;0.47;;;12.80;82.80;;;;;;4021369;29;20085;-75
2024/04/03 14:14:19;;;;;;;1.30;0.50;;;12.80;84.00;;;;;;4021586;29;20136;-76
2024/04/03 14:16:23;;;;;;;1.10;0.40;;;12.80;84.50;;;;;;4021288;29;20093;-75
2024/04/03 14:18:24;;;;;;;0.98;0.30;;;12.70;84.00;;;;;;4021792;29;20117;-75
2024/04/03 14:20:26;;;;;;;0.55;0.20;;;12.70;84.70;;;;;;4021457;29;20057;-75
2024/04/03 14:22:28;;;;;;;0.80;0.30;;;12.70;84.90;;;;;;4021524;29;20057;-75
2024/04/03 14:24:30;;;;;;;1.25;0.30;;;12.60;84.60;;;;;;4021641;29;20053;-75
2024/04/03 14:26:31;;;;;;;1.42;0.35;;;12.60;85.80;;;;;;4021675;29;20069;-75
2024/04/03 14:28:33;;;;;;;0.85;0.40;;;12.60;86.00;;;;;;4021319;29;20487;-75
2024/04/03 14:30:36;;;;;;;0.93;0.28;;;12.60;86.80;;;;;;4021237;29;20086;-75
2024/04/03 14:32:39;;;;;;;1.73;0.40;;;12.60;87.60;;;;;;4020982;29;20050;-75
2024/04/03 14:34:40;;;;;;;2.17;0.40;;;12.60;87.50;;;;;;4021323;29;20057;-75
2024/04/03 14:36:42;;;;;;;1.92;0.50;;;12.60;88.00;;;;;;4021306;29;20053;-75
2024/04/03 14:38:43;;;;;;;0.90;0.30;;;12.60;88.00;;;;;;4021242;29;20050;-75
2024/04/03 14:40:46;;;;;;;1.42;0.40;;;12.60;87.90;;;;;;4021000;29;20539;-75
2024/04/03 14:42:47;;;;;;;2.10;0.43;;;12.50;88.50;;;;;;4020616;29;20053;-75
2024/04/03 14:44:49;;;;;;;0.85;0.40;;;12.50;90.00;;;;;;4021263;29;20114;-76
2024/04/03 14:46:50;;;;;;;1.00;0.30;;;12.50;90.20;;;;;;4020765;29;20469;-75
2024/04/03 14:48:54;;;;;;;0.70;0.32;;;12.40;90.70;;;;;;4020609;29;20073;-74
2024/04/03 14:50:57;;;;;;;1.00;0.40;;;12.40;91.20;;;;;;4020943;29;20445;-74
2024/04/03 14:53:00;;;;;;;1.15;0.40;;;12.40;91.10;;;;;;4020649;29;20054;-74
2024/04/03 14:55:01;;;;;;;1.15;0.40;;;12.40;91.60;;;;;;4019114;29;20507;-74
2024/04/03 14:57:02;;;;;;;2.65;0.93;;;12.30;92.10;;;;;;4021040;29;20060;-74
2024/04/03 14:59:04;;;;;;;1.90;0.68;;;12.30;92.50;;;;;;4020839;29;20054;-74
2024/04/03 15:01:05;;;;;;;5.43;2.30;;;12.40;92.90;;;;;;4021019;29;20148;-75
2024/04/03 15:03:09;;;;;;;1.85;0.60;;;12.40;93.00;;;;;;4021294;29;20077;-75
2024/04/03 15:05:11;;;;;;;2.63;0.75;;;12.30;93.30;;;;;;4020635;29;20110;-74
2024/04/03 15:07:13;;;;;;;1.90;0.80;;;12.20;94.00;;;;;;4020637;29;20081;-74
2024/04/03 15:09:17;;;;;;;4.22;1.35;;;12.30;94.30;;;;;;4020795;29;20109;-74
2024/04/03 15:11:21;;;;;;;1.92;0.60;;;12.30;94.10;;;;;;4020802;29;20412;-75
2024/04/03 15:13:22;;;;;;;1.23;0.50;;;12.30;94.50;;;;;;4020811;29;20484;-74
2024/04/03 15:15:24;;;;;;;2.33;0.50;;;12.40;94.40;;;;;;4020513;29;20077;-75
2024/04/03 15:17:27;;;;;;;1.08;0.43;;;12.40;94.50;;;;;;4020703;29;20060;-75
2024/04/03 15:19:29;;;;;;;2.20;0.70;;;12.40;94.70;;;;;;4020819;29;20060;-75
2024/04/03 15:21:31;;;;;;;1.58;0.70;;;12.40;94.80;;;;;;4020768;29;20053;-74
2024/04/03 15:23:33;;;;;;;1.90;0.50;;;12.40;95.10;;;;;;4020846;29;20088;-74
2024/04/03 15:25:34;;;;;;;1.20;0.50;;;12.40;95.00;;;;;;4020360;29;20088;-74
2024/04/03 15:27:36;;;;;;;1.70;0.60;;;12.40;95.40;;;;;;4020363;29;20054;-74
2024/04/03 15:29:37;;;;;;;1.77;0.60;;;12.40;95.50;;;;;;4020522;29;20072;-75
2024/04/03 15:31:39;;;;;;;1.23;0.50;;;12.40;95.10;;;;;;4020516;29;20132;-75
2024/04/03 15:33:40;;;;;;;1.60;0.60;;;12.40;95.60;;;;;;4020665;29;20053;-74
2024/04/03 15:35:41;;;;;;;1.40;0.50;;;12.40;95.70;;;;;;4020125;29;20393;-74
2024/04/03 15:37:47;;;;;;;3.45;0.70;;;12.30;95.80;;;;;;4020718;29;20057;-74
2024/04/03 15:39:48;;;;;;;1.20;0.40;;;12.30;96.10;;;;;;4020608;29;20096;-74